Time;durP1;ratioP1;P1;durP2;ratioP2;P2;SDS_P1;SDS_P2;PMS_P1;PMS_P2;Temp;Humidity;BMP_temperature;BMP_pressure;BME280_temperature;BME280_humidity;BME280_pressure;Samples;Min_cycle;Max_cycle;Signal;HPM_P1;HPM_P2
2020/12/03 00:00:57;;;;;;;54.97;24.40;;;8.50;63.20;;;;;;4975043;28;20399;-61
2020/12/03 00:03:33;;;;;;;56.42;25.90;;;8.50;63.80;;;;;;4980047;28;20505;-61
2020/12/03 00:06:08;;;;;;;57.65;25.05;;;8.50;63.20;;;;;;4975950;28;20514;-61
2020/12/03 00:08:37;;;;;;;58.28;25.63;;;8.50;63.20;;;;;;4979101;28;20053;-61
2020/12/03 00:11:03;;;;;;;56.05;24.85;;;8.50;63.30;;;;;;4975490;28;20066;-61
2020/12/03 00:13:31;;;;;;;54.58;25.30;;;8.50;63.20;;;;;;4979624;28;20042;-61
2020/12/03 00:16:00;;;;;;;50.35;23.55;;;8.50;63.20;;;;;;4976510;28;20516;-61
2020/12/03 00:18:28;;;;;;;55.58;25.13;;;8.50;63.10;;;;;;4979048;28;20117;-61
2020/12/03 00:20:54;;;;;;;57.63;24.95;;;8.50;63.10;;;;;;4976466;28;20041;-61
2020/12/03 00:23:23;;;;;;;59.72;25.42;;;8.50;63.00;;;;;;4972980;28;20074;-61
2020/12/03 00:25:51;;;;;;;52.72;24.27;;;8.50;63.20;;;;;;4972216;28;20105;-61
2020/12/03 00:28:17;;;;;;;52.67;24.95;;;8.50;63.00;;;;;;4972450;28;20038;-61
2020/12/03 00:30:45;;;;;;;51.20;23.30;;;8.50;63.80;;;;;;4973187;28;20070;-61
2020/12/03 00:33:12;;;;;;;56.08;24.83;;;8.50;63.10;;;;;;4982264;28;20118;-61
2020/12/03 00:35:38;;;;;;;56.05;24.58;;;8.50;63.00;;;;;;4977853;28;20654;-61
2020/12/03 00:38:04;;;;;;;59.40;26.10;;;8.50;63.00;;;;;;4974072;28;20038;-61
2020/12/03 00:40:29;;;;;;;54.63;24.20;;;8.50;63.00;;;;;;4976541;28;20063;-61
2020/12/03 00:42:56;;;;;;;52.72;24.52;;;8.50;62.90;;;;;;4984137;28;20050;-61
2020/12/03 00:45:23;;;;;;;54.63;24.20;;;8.50;63.00;;;;;;4982704;28;20080;-61
2020/12/03 00:47:48;;;;;;;53.67;24.63;;;8.50;63.00;;;;;;4977560;28;20050;-61
2020/12/03 00:50:15;;;;;;;54.22;24.17;;;8.50;62.90;;;;;;4987035;28;20038;-61
2020/12/03 00:52:42;;;;;;;57.33;24.98;;;8.50;63.00;;;;;;4984946;28;20088;-61
2020/12/03 00:55:09;;;;;;;52.80;24.30;;;8.50;62.90;;;;;;4980410;28;20050;-61
2020/12/03 00:57:35;;;;;;;55.08;25.35;;;8.50;62.90;;;;;;4980712;28;20778;-61
2020/12/03 01:00:00;;;;;;;55.63;24.77;;;8.50;63.00;;;;;;4989498;28;20045;-61
2020/12/03 01:02:26;;;;;;;58.55;25.08;;;8.50;63.00;;;;;;4982186;28;20038;-61
2020/12/03 01:04:52;;;;;;;57.38;25.95;;;8.50;63.00;;;;;;4987465;28;20041;-61
2020/12/03 01:07:18;;;;;;;52.90;23.15;;;8.50;63.00;;;;;;4978991;28;20059;-61
2020/12/03 01:09:44;;;;;;;59.45;23.45;;;8.50;62.90;;;;;;4978895;23;20537;-65
2020/12/03 01:12:10;;;;;;;58.67;26.30;;;8.50;62.90;;;;;;4950844;28;20507;-65
2020/12/03 01:14:37;;;;;;;53.95;25.17;;;8.50;62.90;;;;;;4948124;28;20134;-65
2020/12/03 01:17:10;;;;;;;55.50;24.42;;;8.50;62.90;;;;;;4950934;28;20884;-65
2020/12/03 01:19:36;;;;;;;54.38;25.30;;;8.50;62.90;;;;;;4946120;28;20041;-65
2020/12/03 01:22:01;;;;;;;53.85;24.95;;;8.50;62.90;;;;;;4943438;28;20046;-65
2020/12/03 01:24:27;;;;;;;54.85;24.77;;;8.60;62.90;;;;;;4941221;28;20101;-65
2020/12/03 01:26:53;;;;;;;57.47;25.83;;;8.60;62.90;;;;;;4940013;28;20181;-65
2020/12/03 01:29:19;;;;;;;49.00;23.58;;;8.50;62.80;;;;;;4939232;28;20053;-65
2020/12/03 01:31:45;;;;;;;57.78;25.63;;;8.60;62.90;;;;;;4941635;28;20104;-65
2020/12/03 01:34:13;;;;;;;52.88;24.52;;;8.60;62.90;;;;;;4942503;28;20195;-65
2020/12/03 01:36:39;;;;;;;51.88;24.13;;;8.60;62.90;;;;;;4937680;28;20035;-65
2020/12/03 01:39:06;;;;;;;55.97;25.15;;;8.60;62.90;;;;;;4940661;28;20068;-65
2020/12/03 01:41:32;;;;;;;55.25;24.23;;;8.60;62.90;;;;;;4943791;28;20058;-65
2020/12/03 01:43:57;;;;;;;51.05;23.83;;;8.60;62.90;;;;;;4942888;28;20179;-65
2020/12/03 01:46:23;;;;;;;51.17;23.23;;;8.60;62.80;;;;;;4941024;28;20047;-65
2020/12/03 01:49:00;;;;;;;54.78;24.67;;;8.60;62.90;;;;;;4937110;28;20388;-65
2020/12/03 01:51:35;;;;;;;54.22;24.35;;;8.60;62.90;;;;;;4943690;28;20130;-65
2020/12/03 01:54:06;;;;;;;55.83;23.92;;;8.60;62.90;;;;;;4941676;28;20131;-65
2020/12/03 01:56:40;;;;;;;61.33;25.00;;;8.60;62.90;;;;;;4935875;28;20038;-65
2020/12/03 01:59:07;;;;;;;55.58;24.73;;;8.60;62.90;;;;;;4939266;28;20071;-65
2020/12/03 02:01:34;;;;;;;56.80;25.38;;;8.60;62.90;;;;;;4940958;28;20039;-65
2020/12/03 02:04:00;;;;;;;55.97;25.15;;;8.60;62.90;;;;;;4946407;28;20519;-65
2020/12/03 02:06:30;;;;;;;55.83;24.95;;;8.60;62.90;;;;;;4943009;28;20326;-65
2020/12/03 02:08:56;;;;;;;52.90;24.35;;;8.60;62.90;;;;;;4940235;28;20039;-65
2020/12/03 02:11:23;;;;;;;60.78;24.23;;;8.60;62.90;;;;;;4935848;28;20039;-65
2020/12/03 02:13:57;;;;;;;61.30;25.50;;;8.60;62.90;;;;;;4943299;28;20043;-65
2020/12/03 02:16:25;;;;;;;52.90;24.02;;;8.60;62.90;;;;;;4943506;28;20050;-65
2020/12/03 02:18:51;;;;;;;61.60;25.98;;;8.70;62.90;;;;;;4944501;28;20096;-65
2020/12/03 02:21:16;;;;;;;63.95;25.73;;;8.60;62.90;;;;;;4937918;28;20047;-65
2020/12/03 02:23:43;;;;;;;58.13;25.35;;;8.60;62.90;;;;;;4935470;28;20594;-65
2020/12/03 02:26:09;;;;;;;64.80;26.95;;;8.60;62.90;;;;;;4942419;28;20046;-65
2020/12/03 02:28:35;;;;;;;61.85;25.95;;;8.70;63.00;;;;;;4948252;28;20054;-65
2020/12/03 02:31:01;;;;;;;69.25;27.17;;;8.70;63.00;;;;;;4941336;28;20549;-65
2020/12/03 02:33:27;;;;;;;63.53;27.38;;;8.70;62.90;;;;;;4931441;28;20201;-65
2020/12/03 02:35:52;;;;;;;59.15;26.02;;;8.70;62.90;;;;;;4933720;28;20043;-65
2020/12/03 02:38:18;;;;;;;61.50;26.33;;;8.70;63.00;;;;;;4937192;28;20031;-65
2020/12/03 02:40:44;;;;;;;64.32;27.88;;;8.70;63.00;;;;;;4941247;28;20040;-65
2020/12/03 02:43:09;;;;;;;61.35;27.90;;;8.70;63.00;;;;;;4937800;28;20043;-65
2020/12/03 02:45:35;;;;;;;65.63;27.70;;;8.70;63.10;;;;;;4938365;28;20035;-65
2020/12/03 02:48:00;;;;;;;65.43;27.25;;;8.70;63.10;;;;;;4935948;28;20046;-65
2020/12/03 02:50:26;;;;;;;72.35;28.40;;;8.70;63.10;;;;;;4938332;28;20047;-65
2020/12/03 02:52:52;;;;;;;61.67;27.02;;;8.70;63.10;;;;;;4939606;28;20035;-65
2020/12/03 02:55:18;;;;;;;65.15;28.95;;;8.70;63.00;;;;;;4938751;28;20629;-65
2020/12/03 02:57:43;;;;;;;67.80;28.77;;;8.70;63.10;;;;;;4944453;28;20134;-65
2020/12/03 03:00:09;;;;;;;68.93;27.70;;;8.70;63.00;;;;;;4943438;28;20031;-65
2020/12/03 03:02:34;;;;;;;71.82;28.83;;;8.70;63.00;;;;;;4937374;28;20399;-65
2020/12/03 03:05:00;;;;;;;68.88;28.38;;;8.70;63.80;;;;;;4943509;28;20538;-65
2020/12/03 03:07:26;;;;;;;67.00;29.05;;;8.70;63.20;;;;;;4939888;28;20039;-65
2020/12/03 03:09:51;;;;;;;71.22;28.60;;;8.70;63.10;;;;;;4942133;28;20630;-65
2020/12/03 03:12:17;;;;;;;71.03;29.50;;;8.70;63.10;;;;;;4938263;28;20034;-65
2020/12/03 03:14:43;;;;;;;66.90;29.05;;;8.70;63.20;;;;;;4935419;28;20392;-65
2020/12/03 03:17:08;;;;;;;68.43;29.80;;;8.70;63.20;;;;;;4938333;28;20047;-65
2020/12/03 03:19:34;;;;;;;64.43;27.75;;;8.70;63.20;;;;;;4939539;28;20066;-65
2020/12/03 03:22:00;;;;;;;74.45;29.65;;;8.70;63.30;;;;;;4947358;28;20039;-65
2020/12/03 03:24:25;;;;;;;75.28;29.67;;;8.70;63.30;;;;;;4944506;28;20061;-65
2020/12/03 03:26:51;;;;;;;79.05;29.83;;;8.70;63.30;;;;;;4941097;28;21336;-65
2020/12/03 03:29:17;;;;;;;83.15;31.60;;;8.70;63.30;;;;;;4949136;28;20050;-65
2020/12/03 03:31:43;;;;;;;73.78;30.77;;;8.70;63.30;;;;;;4943063;28;20831;-65
2020/12/03 03:34:09;;;;;;;79.03;30.67;;;8.70;63.30;;;;;;4944606;28;20050;-65
2020/12/03 03:36:35;;;;;;;83.78;30.58;;;8.70;63.40;;;;;;4941353;28;20043;-65
2020/12/03 03:39:03;;;;;;;75.07;31.00;;;8.70;64.10;;;;;;4939325;28;20669;-65
2020/12/03 03:41:28;;;;;;;74.55;31.85;;;8.70;63.60;;;;;;4940708;28;20150;-65
2020/12/03 03:43:54;;;;;;;85.82;33.30;;;8.70;63.40;;;;;;4943109;28;20096;-65
2020/12/03 03:46:20;;;;;;;71.03;30.50;;;8.70;63.40;;;;;;4938001;28;20774;-65
2020/12/03 03:48:46;;;;;;;82.25;32.83;;;8.70;63.40;;;;;;4932835;28;20039;-65
2020/12/03 03:51:12;;;;;;;80.40;32.33;;;8.70;63.40;;;;;;4940478;28;20164;-65
2020/12/03 03:53:37;;;;;;;85.82;32.28;;;8.70;63.40;;;;;;4943702;28;20054;-65
2020/12/03 03:56:03;;;;;;;87.07;31.42;;;8.70;63.60;;;;;;4940198;28;20039;-65
2020/12/03 03:58:29;;;;;;;91.32;34.20;;;8.70;63.60;;;;;;4942516;28;20042;-65
2020/12/03 04:00:54;;;;;;;91.93;33.72;;;8.70;64.10;;;;;;4947536;28;20043;-65
2020/12/03 04:03:21;;;;;;;89.38;33.13;;;8.70;63.40;;;;;;4936766;28;20038;-68
2020/12/03 04:05:49;;;;;;;77.95;32.47;;;8.70;63.60;;;;;;4940307;28;20039;-68
2020/12/03 04:08:16;;;;;;;87.78;33.53;;;8.70;63.70;;;;;;4941408;28;20134;-65
2020/12/03 04:10:42;;;;;;;94.30;34.25;;;8.70;63.60;;;;;;4950182;28;20039;-65
2020/12/03 04:13:09;;;;;;;88.88;33.20;;;8.70;63.70;;;;;;4943520;28;20042;-65
2020/12/03 04:15:34;;;;;;;93.82;34.47;;;8.70;63.60;;;;;;4948780;28;20574;-65
2020/12/03 04:18:00;;;;;;;91.53;34.03;;;8.70;63.70;;;;;;4945317;28;20039;-65
2020/12/03 04:20:25;;;;;;;81.80;32.25;;;8.70;63.70;;;;;;4942020;28;20032;-65
2020/12/03 04:22:51;;;;;;;97.18;34.35;;;8.70;63.70;;;;;;4944025;28;20049;-65
2020/12/03 04:25:17;;;;;;;103.25;35.20;;;8.80;63.80;;;;;;4945581;28;20054;-65
2020/12/03 04:27:43;;;;;;;89.00;33.92;;;8.80;63.80;;;;;;4943768;28;20051;-65
2020/12/03 04:30:10;;;;;;;103.28;35.33;;;8.80;63.80;;;;;;4947675;28;20046;-65
2020/12/03 04:32:36;;;;;;;96.32;34.08;;;8.80;63.70;;;;;;4944231;28;20414;-65
2020/12/03 04:35:04;;;;;;;94.85;35.03;;;8.80;63.70;;;;;;4939438;28;20105;-65
2020/12/03 04:37:30;;;;;;;88.38;34.45;;;8.80;63.70;;;;;;4946364;28;20077;-65
2020/12/03 04:39:55;;;;;;;91.13;32.53;;;8.80;63.80;;;;;;4945157;28;20047;-65
2020/12/03 04:42:24;;;;;;;91.95;34.35;;;8.80;63.80;;;;;;4946739;28;20214;-65
2020/12/03 04:44:53;;;;;;;98.57;34.30;;;8.80;63.80;;;;;;4942510;28;20620;-65
2020/12/03 04:47:37;;;;;;;85.45;34.03;;;8.80;63.80;;;;;;4942069;28;20267;-65
2020/12/03 04:50:07;;;;;;;92.63;33.08;;;8.80;63.90;;;;;;4940678;28;20051;-65
2020/12/03 04:52:54;;;;;;;82.95;31.65;;;8.80;64.00;;;;;;4948403;28;20041;-65
2020/12/03 04:55:19;;;;;;;92.90;33.88;;;8.80;64.00;;;;;;4938324;28;20043;-65
2020/12/03 04:57:53;;;;;;;83.35;32.90;;;8.80;64.00;;;;;;4941978;28;20074;-64
2020/12/03 05:00:24;;;;;;;89.68;31.95;;;8.80;64.10;;;;;;4940839;28;20062;-65
2020/12/03 05:02:53;;;;;;;93.88;32.65;;;8.90;64.20;;;;;;4942510;28;20459;-65
2020/12/03 05:05:46;;;;;;;84.53;32.28;;;8.90;64.20;;;;;;4943907;28;20473;-65
2020/12/03 05:08:36;;;;;;;89.40;33.00;;;8.90;64.20;;;;;;4945692;28;20543;-68
2020/12/03 05:11:06;;;;;;;95.68;33.80;;;9.00;64.30;;;;;;4946319;28;20066;-65
2020/12/03 05:13:41;;;;;;;94.30;33.63;;;9.00;64.20;;;;;;4948753;28;20400;-65
2020/12/03 05:16:26;;;;;;;92.22;33.22;;;9.00;64.20;;;;;;4945273;28;20039;-65
2020/12/03 05:18:56;;;;;;;94.97;34.92;;;9.00;64.20;;;;;;4948903;28;20043;-65
2020/12/03 05:21:25;;;;;;;92.95;34.58;;;9.10;64.30;;;;;;4949200;28;20034;-65
2020/12/03 05:23:51;;;;;;;93.20;33.67;;;9.10;64.30;;;;;;4949733;28;20078;-64
2020/12/03 05:26:23;;;;;;;83.07;33.42;;;9.10;64.30;;;;;;4940876;28;20148;-65
2020/12/03 05:29:08;;;;;;;95.88;32.78;;;9.10;64.30;;;;;;4947624;28;20054;-65
2020/12/03 05:31:45;;;;;;;84.28;33.03;;;9.10;64.20;;;;;;4948596;28;20114;-65
2020/12/03 05:34:17;;;;;;;91.03;34.42;;;9.20;64.30;;;;;;4950104;28;20031;-65
2020/12/03 05:36:46;;;;;;;101.63;36.80;;;9.10;64.30;;;;;;4949683;28;20054;-65
2020/12/03 05:39:13;;;;;;;87.35;34.38;;;9.20;64.40;;;;;;4947007;28;20046;-65
2020/12/03 05:42:03;;;;;;;93.95;33.42;;;9.20;64.40;;;;;;4953416;28;20050;-65
2020/12/03 05:44:34;;;;;;;87.20;33.15;;;9.20;64.40;;;;;;4947491;28;20051;-65
2020/12/03 05:47:02;;;;;;;98.05;34.53;;;9.20;64.30;;;;;;4950965;28;20309;-65
2020/12/03 05:49:29;;;;;;;89.40;36.28;;;9.20;64.30;;;;;;4948160;28;20039;-65
2020/12/03 05:52:12;;;;;;;97.30;38.13;;;9.20;64.20;;;;;;4945908;28;20046;-65
2020/12/03 05:54:37;;;;;;;83.32;34.58;;;9.30;64.30;;;;;;4947465;28;20118;-65
2020/12/03 05:57:03;;;;;;;102.25;37.08;;;9.20;64.30;;;;;;4948281;28;21762;-65
2020/12/03 05:59:28;;;;;;;104.18;36.05;;;9.30;64.30;;;;;;4952658;28;20061;-65
2020/12/03 06:02:03;;;;;;;93.68;34.88;;;9.20;64.30;;;;;;4948374;28;20047;-65
2020/12/03 06:04:38;;;;;;;91.57;34.47;;;9.30;64.30;;;;;;4945335;28;20097;-65
2020/12/03 06:07:12;;;;;;;95.72;36.70;;;9.30;64.30;;;;;;4945311;28;20039;-65
2020/12/03 06:09:47;;;;;;;93.90;36.58;;;9.20;64.30;;;;;;4950819;28;20046;-65
2020/12/03 06:12:56;;;;;;;94.43;37.75;;;9.20;64.30;;;;;;4955757;28;20046;-65
2020/12/03 06:16:13;;;;;;;94.72;34.92;;;9.20;64.30;;;;;;4957875;28;20043;-65
2020/12/03 06:18:41;;;;;;;91.78;35.72;;;9.20;64.30;;;;;;4952410;28;20042;-64
2020/12/03 06:21:14;;;;;;;96.50;35.33;;;9.20;64.30;;;;;;4955840;28;20043;-64
2020/12/03 06:23:40;;;;;;;93.20;35.80;;;9.20;64.30;;;;;;4957002;28;20129;-65
2020/12/03 06:26:11;;;;;;;96.28;35.95;;;9.20;64.40;;;;;;4954087;28;20118;-65
2020/12/03 06:29:10;;;;;;;99.40;36.33;;;9.30;64.40;;;;;;4954320;28;20043;-65
2020/12/03 06:31:52;;;;;;;91.88;36.10;;;9.30;64.40;;;;;;4955908;28;20054;-64
2020/12/03 06:34:32;;;;;;;97.05;36.47;;;9.30;64.30;;;;;;4957395;28;20101;-64
2020/12/03 06:37:02;;;;;;;87.80;34.05;;;9.30;64.30;;;;;;4955184;28;20126;-65
2020/12/03 06:39:39;;;;;;;99.25;35.97;;;9.30;64.40;;;;;;4951480;28;20574;-65
2020/12/03 06:42:05;;;;;;;95.28;35.50;;;9.30;64.30;;;;;;4952940;28;20054;-65
2020/12/03 06:44:36;;;;;;;90.85;35.75;;;9.30;64.30;;;;;;4954580;28;20047;-65
2020/12/03 06:47:16;;;;;;;102.50;36.35;;;9.20;64.30;;;;;;4955686;28;20077;-65
2020/12/03 06:50:03;;;;;;;106.65;36.40;;;9.20;64.30;;;;;;4951266;28;20527;-65
2020/12/03 06:53:08;;;;;;;105.80;36.70;;;9.20;64.40;;;;;;4952331;28;20039;-65
2020/12/03 06:56:01;;;;;;;96.00;36.00;;;9.20;65.10;;;;;;4954470;28;20121;-65
2020/12/03 06:58:57;;;;;;;102.47;37.45;;;9.10;64.40;;;;;;4954522;28;20122;-65
2020/12/03 07:01:46;;;;;;;102.60;37.17;;;9.10;64.70;;;;;;4951269;28;20423;-65
2020/12/03 07:04:44;;;;;;;100.00;37.83;;;9.10;64.60;;;;;;4932338;28;20165;-65
2020/12/03 07:07:12;;;;;;;97.25;35.22;;;9.10;64.70;;;;;;4954474;28;20499;-65
2020/12/03 07:09:54;;;;;;;109.47;37.95;;;9.20;64.70;;;;;;4967553;23;20051;-63
2020/12/03 07:12:57;;;;;;;99.85;35.25;;;9.20;64.80;;;;;;4953126;28;20030;-63
2020/12/03 07:16:09;;;;;;;114.85;38.33;;;9.20;64.70;;;;;;4961741;28;20594;-63
2020/12/03 07:18:56;;;;;;;102.45;37.75;;;9.20;64.60;;;;;;4958016;28;20050;-63
2020/12/03 07:22:07;;;;;;;105.90;36.67;;;9.20;64.70;;;;;;4967152;28;20034;-63
2020/12/03 07:24:35;;;;;;;108.00;36.28;;;9.20;64.70;;;;;;4934906;28;20050;-63
2020/12/03 07:27:20;;;;;;;100.55;36.85;;;9.20;64.70;;;;;;4951027;28;20042;-63
2020/12/03 07:30:13;;;;;;;106.18;36.30;;;9.20;64.70;;;;;;4949131;28;20045;-63
2020/12/03 07:33:08;;;;;;;100.18;35.45;;;9.20;64.80;;;;;;4948155;28;20043;-63
2020/12/03 07:35:43;;;;;;;97.85;34.75;;;9.20;64.70;;;;;;4951036;28;20058;-63
2020/12/03 07:38:31;;;;;;;115.55;39.15;;;9.30;64.80;;;;;;4954669;28;20490;-63
2020/12/03 07:40:58;;;;;;;120.70;39.47;;;9.30;64.80;;;;;;4954047;28;20471;-63
2020/12/03 07:43:34;;;;;;;115.90;38.47;;;9.30;64.80;;;;;;4953324;28;20121;-63
2020/12/03 07:46:01;;;;;;;120.20;37.10;;;9.30;64.70;;;;;;4955656;28;20137;-63
2020/12/03 07:48:32;;;;;;;114.47;38.35;;;9.30;64.70;;;;;;4951301;28;20118;-63
2020/12/03 07:51:01;;;;;;;119.85;38.13;;;9.30;64.80;;;;;;4955903;28;20032;-63
2020/12/03 07:53:27;;;;;;;124.68;40.28;;;9.30;64.80;;;;;;4952459;28;20023;-63
2020/12/03 07:55:53;;;;;;;109.47;36.95;;;9.40;64.80;;;;;;4953710;28;20099;-63
2020/12/03 07:58:29;;;;;;;116.25;38.83;;;9.40;64.70;;;;;;4950911;28;20042;-63
2020/12/03 08:00:56;;;;;;;123.13;38.97;;;9.40;64.70;;;;;;4943488;28;20050;-63
2020/12/03 08:03:45;;;;;;;115.22;39.05;;;9.40;64.70;;;;;;4948150;28;20036;-63
2020/12/03 08:06:23;;;;;;;114.15;36.33;;;9.40;64.80;;;;;;4950152;28;20039;-63
2020/12/03 08:08:51;;;;;;;117.70;39.22;;;9.40;64.70;;;;;;4947095;28;20620;-63
2020/12/03 08:11:41;;;;;;;120.30;38.78;;;9.50;64.80;;;;;;4951345;28;20027;-63
2020/12/03 08:14:37;;;;;;;117.07;38.17;;;9.50;64.80;;;;;;4946470;28;20043;-63
2020/12/03 08:17:26;;;;;;;114.38;37.47;;;9.50;64.70;;;;;;4942050;28;20153;-63
2020/12/03 08:20:04;;;;;;;115.03;38.47;;;9.50;64.70;;;;;;4951482;28;20042;-63
2020/12/03 08:22:33;;;;;;;108.25;37.63;;;9.60;64.80;;;;;;4951092;28;20039;-63
2020/12/03 08:25:13;;;;;;;116.53;39.95;;;9.60;64.80;;;;;;4953755;28;20096;-63
2020/12/03 08:27:39;;;;;;;105.47;35.90;;;9.70;64.80;;;;;;4950397;28;22191;-63
2020/12/03 08:30:41;;;;;;;104.68;36.92;;;9.70;64.70;;;;;;4953918;28;20507;-63
2020/12/03 08:33:34;;;;;;;121.18;37.95;;;9.70;64.70;;;;;;4953620;28;20039;-63
2020/12/03 08:36:05;;;;;;;103.07;36.05;;;9.70;64.60;;;;;;4951649;28;20623;-67
2020/12/03 08:38:38;;;;;;;111.07;37.95;;;9.70;64.50;;;;;;4954238;28;20039;-63
2020/12/03 08:41:08;;;;;;;106.53;36.22;;;9.70;64.40;;;;;;4964502;28;20043;-64
2020/12/03 08:43:41;;;;;;;107.72;37.55;;;9.80;64.40;;;;;;4947673;28;20158;-62
2020/12/03 08:48:38;;;;;;;99.90;34.13;;;9.80;64.30;;;;;;4950977;28;20063;-62
2020/12/03 08:51:07;;;;;;;98.30;36.17;;;9.80;64.30;;;;;;4950016;28;20072;-62
2020/12/03 08:53:34;;;;;;;94.93;36.28;;;9.80;64.20;;;;;;4948402;28;20314;-62
2020/12/03 08:56:15;;;;;;;94.60;34.55;;;9.80;64.10;;;;;;4947187;28;20439;-62
2020/12/03 08:59:02;;;;;;;100.90;36.70;;;9.80;64.10;;;;;;4952331;28;20093;-62
2020/12/03 09:01:34;;;;;;;97.82;35.90;;;9.90;64.10;;;;;;4953161;28;20098;-62
2020/12/03 09:04:02;;;;;;;88.30;32.92;;;9.90;64.20;;;;;;4953791;28;20090;-63
2020/12/03 09:06:31;;;;;;;86.88;34.65;;;9.90;64.10;;;;;;4958379;28;20035;-62
2020/12/03 09:08:57;;;;;;;89.68;35.28;;;9.90;64.10;;;;;;4953280;28;20101;-62
2020/12/03 09:11:25;;;;;;;90.40;34.75;;;9.90;64.00;;;;;;4956393;28;20042;-63
2020/12/03 09:13:57;;;;;;;95.97;34.55;;;9.90;64.00;;;;;;4954608;28;20084;-62
2020/12/03 09:16:25;;;;;;;80.68;33.25;;;9.90;63.90;;;;;;4955467;28;20424;-62
2020/12/03 09:18:51;;;;;;;88.03;33.63;;;10.00;64.00;;;;;;4954920;28;20552;-62
2020/12/03 09:21:27;;;;;;;86.38;33.17;;;10.00;63.80;;;;;;4957101;28;20043;-63
2020/12/03 09:23:55;;;;;;;91.18;33.25;;;10.00;63.80;;;;;;4952677;28;20066;-62
2020/12/03 09:26:26;;;;;;;82.30;33.30;;;10.10;63.90;;;;;;4957452;28;20030;-62
2020/12/03 09:28:53;;;;;;;90.32;36.58;;;10.00;63.70;;;;;;4954754;28;20051;-62
2020/12/03 09:31:19;;;;;;;86.78;32.40;;;10.10;63.70;;;;;;4957524;28;20039;-62
2020/12/03 09:33:45;;;;;;;91.32;35.90;;;10.10;63.60;;;;;;4958376;28;20039;-62
2020/12/03 09:36:12;;;;;;;93.32;35.50;;;10.10;63.60;;;;;;4960260;28;20035;-63
2020/12/03 09:38:40;;;;;;;92.72;34.60;;;10.10;63.60;;;;;;4956337;28;22450;-63
2020/12/03 09:41:07;;;;;;;83.82;35.17;;;10.20;63.60;;;;;;4957483;28;20035;-62
2020/12/03 09:43:35;;;;;;;78.30;34.10;;;10.20;63.50;;;;;;4957158;28;20049;-64
2020/12/03 09:46:05;;;;;;;80.97;32.55;;;10.20;63.40;;;;;;4957892;28;20023;-63
2020/12/03 09:48:32;;;;;;;85.75;34.83;;;10.20;63.30;;;;;;4951925;28;20043;-63
2020/12/03 09:51:02;;;;;;;85.10;35.10;;;10.30;63.30;;;;;;4956779;28;20477;-63
2020/12/03 09:53:31;;;;;;;76.75;33.13;;;10.30;63.20;;;;;;4957274;28;20558;-63
2020/12/03 09:56:01;;;;;;;80.03;31.98;;;10.30;63.00;;;;;;4958678;28;20039;-63
2020/12/03 09:58:26;;;;;;;77.43;33.03;;;10.30;62.90;;;;;;4953024;28;20564;-63
2020/12/03 10:00:54;;;;;;;79.78;33.53;;;10.30;62.90;;;;;;4956920;28;20050;-63
2020/12/03 10:03:58;;;;;;;73.07;32.58;;;10.30;63.70;;;;;;4958758;28;20063;-63
2020/12/03 10:06:35;;;;;;;77.53;33.40;;;10.30;62.90;;;;;;4953921;28;20736;-62
2020/12/03 10:09:22;;;;;;;77.25;33.30;;;10.30;62.70;;;;;;4954018;28;20062;-63
2020/12/03 10:12:14;;;;;;;68.05;30.00;;;10.30;62.70;;;;;;4955016;28;20499;-63
2020/12/03 10:15:04;;;;;;;74.88;32.20;;;10.20;62.80;;;;;;4956778;28;20138;-62
2020/12/03 10:17:42;;;;;;;74.45;32.72;;;10.30;62.80;;;;;;4969653;28;20034;-63
2020/12/03 10:20:08;;;;;;;73.88;32.10;;;10.30;62.70;;;;;;4956036;28;20039;-62
2020/12/03 10:22:55;;;;;;;78.50;35.08;;;10.20;62.60;;;;;;4954715;28;20038;-62
2020/12/03 10:25:27;;;;;;;84.57;33.85;;;10.20;62.50;;;;;;4955511;28;20044;-63
2020/12/03 10:28:15;;;;;;;79.38;32.33;;;10.20;62.60;;;;;;4954666;28;20042;-63
2020/12/03 10:30:42;;;;;;;74.82;31.23;;;10.10;62.50;;;;;;4953597;28;20783;-63
2020/12/03 10:33:15;;;;;;;78.43;32.33;;;10.10;62.50;;;;;;4950796;28;20051;-63
2020/12/03 10:35:43;;;;;;;77.75;31.30;;;10.10;62.70;;;;;;4954343;28;20039;-62
2020/12/03 10:38:14;;;;;;;68.57;33.15;;;10.10;62.70;;;;;;4956451;28;20653;-62
2020/12/03 10:40:42;;;;;;;70.35;32.60;;;10.10;62.80;;;;;;4951930;28;20058;-63
2020/12/03 10:43:12;;;;;;;74.20;32.20;;;10.10;62.60;;;;;;4953259;28;20034;-62
2020/12/03 10:45:43;;;;;;;74.53;33.10;;;10.10;62.60;;;;;;4949291;28;20400;-62
2020/12/03 10:48:23;;;;;;;74.68;32.53;;;10.10;62.60;;;;;;4948502;28;20066;-63
2020/12/03 10:51:02;;;;;;;68.78;31.95;;;10.10;62.60;;;;;;4953314;28;20039;-63
2020/12/03 10:53:30;;;;;;;70.53;30.83;;;10.10;62.60;;;;;;4950134;28;20042;-63
2020/12/03 10:55:57;;;;;;;69.18;31.38;;;10.10;62.70;;;;;;4952610;28;20043;-63
2020/12/03 10:58:28;;;;;;;71.47;33.42;;;10.10;62.70;;;;;;4949928;28;20038;-62
2020/12/03 11:00:54;;;;;;;69.63;30.83;;;10.10;62.80;;;;;;4955464;28;20138;-62
2020/12/03 11:03:27;;;;;;;66.32;30.55;;;10.10;62.60;;;;;;4954810;28;20114;-63
2020/12/03 11:05:53;;;;;;;64.82;29.92;;;10.10;62.60;;;;;;4952854;28;20034;-62
2020/12/03 11:08:19;;;;;;;68.70;31.17;;;10.10;62.60;;;;;;4949755;28;20928;-63
2020/12/03 11:10:46;;;;;;;60.03;28.70;;;10.10;62.60;;;;;;4951920;28;20554;-62
2020/12/03 11:13:15;;;;;;;66.47;28.10;;;10.20;62.60;;;;;;4950004;28;20396;-63
2020/12/03 11:15:41;;;;;;;67.60;30.52;;;10.20;62.60;;;;;;4952410;28;20483;-63
2020/12/03 11:18:11;;;;;;;64.32;29.27;;;10.20;62.60;;;;;;4952045;28;20049;-63
2020/12/03 11:20:38;;;;;;;56.95;28.15;;;10.20;62.60;;;;;;4966299;28;20039;-62
2020/12/03 11:23:26;;;;;;;59.45;27.55;;;10.20;62.50;;;;;;4952001;28;20035;-62
2020/12/03 11:25:54;;;;;;;51.15;26.13;;;10.20;62.60;;;;;;4952426;28;20039;-63
2020/12/03 11:28:35;;;;;;;57.40;27.55;;;10.20;62.60;;;;;;4950625;28;20035;-62
2020/12/03 11:31:04;;;;;;;50.50;25.65;;;10.20;63.30;;;;;;4955555;28;20054;-63
2020/12/03 11:33:31;;;;;;;54.65;26.08;;;10.20;62.60;;;;;;4952857;28;20033;-63
2020/12/03 11:36:06;;;;;;;53.67;26.67;;;10.20;62.60;;;;;;4953249;28;20042;-62
2020/12/03 11:38:32;;;;;;;48.03;24.08;;;10.20;62.70;;;;;;4946995;28;20792;-62
2020/12/03 11:41:02;;;;;;;52.88;25.58;;;10.20;62.50;;;;;;4953587;28;20094;-62
2020/12/03 11:43:50;;;;;;;48.30;25.42;;;10.20;62.60;;;;;;4953184;28;20054;-62
2020/12/03 11:48:54;;;;;;;45.67;24.58;;;10.20;62.50;;;;;;4950532;28;20031;-62
2020/12/03 11:51:37;;;;;;;48.38;23.33;;;10.20;62.60;;;;;;4954616;28;20051;-62
2020/12/03 11:54:03;;;;;;;44.67;22.73;;;10.20;62.60;;;;;;4951787;28;20035;-62
2020/12/03 11:56:30;;;;;;;43.00;23.52;;;10.20;62.60;;;;;;4951008;28;20392;-63
2020/12/03 11:59:15;;;;;;;42.85;22.83;;;10.20;62.60;;;;;;4950417;28;20039;-63
2020/12/03 12:01:52;;;;;;;38.47;21.65;;;10.20;62.70;;;;;;4951770;28;20762;-63
2020/12/03 12:04:21;;;;;;;41.50;22.45;;;10.30;62.60;;;;;;4955768;28;20129;-62
2020/12/03 12:06:53;;;;;;;46.63;23.60;;;10.30;62.50;;;;;;4953248;28;20054;-62
2020/12/03 12:09:25;;;;;;;37.17;21.80;;;10.30;62.50;;;;;;4952437;28;20125;-62
2020/12/03 12:11:50;;;;;;;38.00;22.02;;;10.30;62.50;;;;;;4952086;28;20090;-62
2020/12/03 12:14:19;;;;;;;37.28;21.35;;;10.30;62.40;;;;;;4953516;28;20042;-63
2020/12/03 12:16:44;;;;;;;39.78;20.80;;;10.30;62.40;;;;;;4947644;28;20407;-62
2020/12/03 12:19:10;;;;;;;36.60;20.65;;;10.30;62.40;;;;;;4950871;28;20034;-63
2020/12/03 12:21:36;;;;;;;37.47;21.13;;;10.40;62.40;;;;;;4949022;28;20483;-62
2020/12/03 12:24:02;;;;;;;37.95;20.63;;;10.30;62.10;;;;;;4952488;28;20047;-62
2020/12/03 12:26:28;;;;;;;32.53;19.77;;;10.30;62.10;;;;;;4951950;28;20050;-63
2020/12/03 12:28:54;;;;;;;38.20;19.30;;;10.30;62.10;;;;;;4949787;28;20043;-62
2020/12/03 12:31:20;;;;;;;33.75;20.75;;;10.30;62.10;;;;;;4952618;28;20039;-62
2020/12/03 12:33:46;;;;;;;34.35;19.55;;;10.30;62.10;;;;;;4952576;28;20547;-62
2020/12/03 12:36:12;;;;;;;32.63;19.40;;;10.30;62.00;;;;;;4956525;28;20101;-63
2020/12/03 12:38:37;;;;;;;36.90;19.05;;;10.30;62.00;;;;;;4953976;28;20096;-63
2020/12/03 12:41:03;;;;;;;33.40;18.38;;;10.40;62.00;;;;;;4957395;28;20046;-65
2020/12/03 12:43:28;;;;;;;33.58;18.65;;;10.40;62.00;;;;;;4970941;28;20039;-62
2020/12/03 12:45:54;;;;;;;38.65;18.85;;;10.40;61.90;;;;;;4957683;28;21024;-62
2020/12/03 12:48:21;;;;;;;39.80;19.90;;;10.40;61.80;;;;;;4953764;28;20034;-63
2020/12/03 12:50:46;;;;;;;32.45;18.15;;;10.40;61.80;;;;;;4953651;28;20377;-62
2020/12/03 12:53:12;;;;;;;30.80;17.63;;;10.40;61.70;;;;;;4955429;28;20085;-63
2020/12/03 12:55:38;;;;;;;37.92;18.80;;;10.40;61.70;;;;;;4953924;28;20127;-63
2020/12/03 12:58:03;;;;;;;26.45;16.00;;;10.40;61.70;;;;;;4952559;28;20039;-62
2020/12/03 13:00:29;;;;;;;31.20;17.63;;;10.30;61.60;;;;;;4952816;28;20027;-63